sensor_id;sensor_type;location;lat;lon;timestamp;temperature;humidity
22491;DHT22;11412;50.802;4.350;2023-01-10T00:00:32;6.50;99.90
22491;DHT22;11412;50.802;4.350;2023-01-10T00:03:06;6.30;99.90
22491;DHT22;11412;50.802;4.350;2023-01-10T00:05:33;6.50;99.90
22491;DHT22;11412;50.802;4.350;2023-01-10T00:07:59;6.40;99.90
22491;DHT22;11412;50.802;4.350;2023-01-10T00:10:26;6.40;99.90
22491;DHT22;11412;50.802;4.350;2023-01-10T00:12:52;6.40;99.90
22491;DHT22;11412;50.802;4.350;2023-01-10T00:15:37;6.30;99.90
22491;DHT22;11412;50.802;4.350;2023-01-10T00:18:02;6.40;99.90
22491;DHT22;11412;50.802;4.350;2023-01-10T00:20:28;6.30;99.90
22491;DHT22;11412;50.802;4.350;2023-01-10T00:22:54;6.40;99.90
22491;DHT22;11412;50.802;4.350;2023-01-10T00:25:20;6.50;99.90
22491;DHT22;11412;50.802;4.350;2023-01-10T00:27:47;6.40;99.90
22491;DHT22;11412;50.802;4.350;2023-01-10T00:30:31;6.40;99.90
22491;DHT22;11412;50.802;4.350;2023-01-10T00:32:59;6.50;99.90
22491;DHT22;11412;50.802;4.350;2023-01-10T00:35:25;6.60;99.90
22491;DHT22;11412;50.802;4.350;2023-01-10T00:37:51;6.50;99.90
22491;DHT22;11412;50.802;4.350;2023-01-10T00:40:22;6.60;99.90
22491;DHT22;11412;50.802;4.350;2023-01-10T00:42:48;6.60;99.90
22491;DHT22;11412;50.802;4.350;2023-01-10T00:45:32;6.70;99.90
22491;DHT22;11412;50.802;4.350;2023-01-10T00:47:58;6.50;99.90
22491;DHT22;11412;50.802;4.350;2023-01-10T00:50:23;6.40;99.90
22491;DHT22;11412;50.802;4.350;2023-01-10T00:52:49;6.40;99.90
22491;DHT22;11412;50.802;4.350;2023-01-10T00:55:15;6.30;99.90
22491;DHT22;11412;50.802;4.350;2023-01-10T00:57:40;6.40;99.90
22491;DHT22;11412;50.802;4.350;2023-01-10T01:00:06;6.40;99.90
22491;DHT22;11412;50.802;4.350;2023-01-10T01:02:33;6.70;99.90
22491;DHT22;11412;50.802;4.350;2023-01-10T01:04:59;6.60;99.90
22491;DHT22;11412;50.802;4.350;2023-01-10T01:07:24;6.50;99.90
22491;DHT22;11412;50.802;4.350;2023-01-10T01:09:50;6.50;99.90
22491;DHT22;11412;50.802;4.350;2023-01-10T01:12:34;6.40;99.90
22491;DHT22;11412;50.802;4.350;2023-01-10T01:15:00;6.60;99.90
22491;DHT22;11412;50.802;4.350;2023-01-10T01:17:25;6.70;99.90
22491;DHT22;11412;50.802;4.350;2023-01-10T01:19:51;6.70;99.90
22491;DHT22;11412;50.802;4.350;2023-01-10T01:22:17;6.60;99.90
22491;DHT22;11412;50.802;4.350;2023-01-10T01:24:42;6.60;99.90
22491;DHT22;11412;50.802;4.350;2023-01-10T01:27:08;6.80;99.90
22491;DHT22;11412;50.802;4.350;2023-01-10T01:29:34;6.80;99.90
22491;DHT22;11412;50.802;4.350;2023-01-10T01:31:59;6.60;99.90
22491;DHT22;11412;50.802;4.350;2023-01-10T01:34:25;6.60;99.90
22491;DHT22;11412;50.802;4.350;2023-01-10T01:36:50;6.30;99.90
22491;DHT22;11412;50.802;4.350;2023-01-10T01:39:16;6.40;99.90
22491;DHT22;11412;50.802;4.350;2023-01-10T01:41:42;6.50;99.90
22491;DHT22;11412;50.802;4.350;2023-01-10T01:44:29;6.50;99.90
22491;DHT22;11412;50.802;4.350;2023-01-10T01:49:30;6.00;99.90
22491;DHT22;11412;50.802;4.350;2023-01-10T01:52:03;6.00;99.90
22491;DHT22;11412;50.802;4.350;2023-01-10T01:54:31;6.00;99.90
22491;DHT22;11412;50.802;4.350;2023-01-10T01:57:10;6.20;99.90
22491;DHT22;11412;50.802;4.350;2023-01-10T01:59:39;6.40;99.90
22491;DHT22;11412;50.802;4.350;2023-01-10T02:02:19;6.40;99.90
22491;DHT22;11412;50.802;4.350;2023-01-10T02:04:50;6.20;99.90
22491;DHT22;11412;50.802;4.350;2023-01-10T02:07:17;6.30;99.90
22491;DHT22;11412;50.802;4.350;2023-01-10T02:09:47;6.40;99.90
22491;DHT22;11412;50.802;4.350;2023-01-10T02:12:14;6.60;99.90
22491;DHT22;11412;50.802;4.350;2023-01-10T02:14:42;6.80;99.90
22491;DHT22;11412;50.802;4.350;2023-01-10T02:17:09;6.80;99.90
22491;DHT22;11412;50.802;4.350;2023-01-10T02:25:17;6.70;99.90
22491;DHT22;11412;50.802;4.350;2023-01-10T02:33:32;6.50;99.90
22491;DHT22;11412;50.802;4.350;2023-01-10T02:44:20;6.30;99.90
22491;DHT22;11412;50.802;4.350;2023-01-10T02:46:48;6.10;99.90
22491;DHT22;11412;50.802;4.350;2023-01-10T02:49:14;5.90;99.90
22491;DHT22;11412;50.802;4.350;2023-01-10T02:51:39;6.00;99.90
22491;DHT22;11412;50.802;4.350;2023-01-10T02:54:18;5.90;99.90
22491;DHT22;11412;50.802;4.350;2023-01-10T03:02:43;5.80;99.90
22491;DHT22;11412;50.802;4.350;2023-01-10T03:13:18;6.40;99.90
22491;DHT22;11412;50.802;4.350;2023-01-10T03:15:47;6.20;99.90
22491;DHT22;11412;50.802;4.350;2023-01-10T03:18:21;6.30;99.90
22491;DHT22;11412;50.802;4.350;2023-01-10T03:20:50;6.30;99.90
22491;DHT22;11412;50.802;4.350;2023-01-10T03:23:18;6.10;99.90
22491;DHT22;11412;50.802;4.350;2023-01-10T03:25:47;6.10;99.90
22491;DHT22;11412;50.802;4.350;2023-01-10T03:28:50;6.30;99.90
22491;DHT22;11412;50.802;4.350;2023-01-10T03:31:22;6.50;99.90
22491;DHT22;11412;50.802;4.350;2023-01-10T03:33:49;6.40;99.90
22491;DHT22;11412;50.802;4.350;2023-01-10T03:36:40;6.20;99.90
22491;DHT22;11412;50.802;4.350;2023-01-10T03:39:17;6.00;99.90
22491;DHT22;11412;50.802;4.350;2023-01-10T03:44:36;5.50;99.90
22491;DHT22;11412;50.802;4.350;2023-01-10T03:47:09;5.70;99.90
22491;DHT22;11412;50.802;4.350;2023-01-10T03:49:38;5.40;99.90
22491;DHT22;11412;50.802;4.350;2023-01-10T03:52:06;5.40;99.90
22491;DHT22;11412;50.802;4.350;2023-01-10T03:54:33;5.50;99.90
22491;DHT22;11412;50.802;4.350;2023-01-10T03:56:59;6.00;99.90
22491;DHT22;11412;50.802;4.350;2023-01-10T03:59:26;6.10;99.90
22491;DHT22;11412;50.802;4.350;2023-01-10T04:01:53;6.20;99.90
22491;DHT22;11412;50.802;4.350;2023-01-10T04:04:19;6.00;99.90
22491;DHT22;11412;50.802;4.350;2023-01-10T04:06:44;5.70;99.90
22491;DHT22;11412;50.802;4.350;2023-01-10T04:09:10;5.60;99.90
22491;DHT22;11412;50.802;4.350;2023-01-10T04:11:36;5.90;99.90
22491;DHT22;11412;50.802;4.350;2023-01-10T04:14:02;5.90;99.90
22491;DHT22;11412;50.802;4.350;2023-01-10T04:16:27;6.10;99.90
22491;DHT22;11412;50.802;4.350;2023-01-10T04:18:53;6.00;99.90
22491;DHT22;11412;50.802;4.350;2023-01-10T04:21:19;5.80;99.90
22491;DHT22;11412;50.802;4.350;2023-01-10T04:23:44;6.00;99.90
22491;DHT22;11412;50.802;4.350;2023-01-10T04:26:10;6.00;99.90
22491;DHT22;11412;50.802;4.350;2023-01-10T04:28:36;6.00;99.90
22491;DHT22;11412;50.802;4.350;2023-01-10T04:31:01;6.10;99.90
22491;DHT22;11412;50.802;4.350;2023-01-10T04:33:27;6.00;99.90
22491;DHT22;11412;50.802;4.350;2023-01-10T04:35:53;6.10;99.90
22491;DHT22;11412;50.802;4.350;2023-01-10T04:38:19;6.10;99.90
22491;DHT22;11412;50.802;4.350;2023-01-10T04:40:51;6.40;99.90
22491;DHT22;11412;50.802;4.350;2023-01-10T04:43:18;6.40;99.90
22491;DHT22;11412;50.802;4.350;2023-01-10T04:45:44;6.40;99.90
22491;DHT22;11412;50.802;4.350;2023-01-10T04:48:09;6.10;99.90
22491;DHT22;11412;50.802;4.350;2023-01-10T04:50:35;6.00;99.90
22491;DHT22;11412;50.802;4.350;2023-01-10T04:53:01;5.90;99.90
22491;DHT22;11412;50.802;4.350;2023-01-10T04:55:26;5.90;99.90
22491;DHT22;11412;50.802;4.350;2023-01-10T04:57:52;5.90;99.90
22491;DHT22;11412;50.802;4.350;2023-01-10T05:00:18;5.90;99.90
22491;DHT22;11412;50.802;4.350;2023-01-10T05:02:43;6.10;99.90
22491;DHT22;11412;50.802;4.350;2023-01-10T05:05:10;6.10;99.90
22491;DHT22;11412;50.802;4.350;2023-01-10T05:07:36;6.20;99.90
22491;DHT22;11412;50.802;4.350;2023-01-10T05:10:03;6.10;99.90
22491;DHT22;11412;50.802;4.350;2023-01-10T05:12:29;6.10;99.90
22491;DHT22;11412;50.802;4.350;2023-01-10T05:14:54;6.10;99.90
22491;DHT22;11412;50.802;4.350;2023-01-10T05:17:20;5.90;99.90
22491;DHT22;11412;50.802;4.350;2023-01-10T05:19:45;6.30;99.90
22491;DHT22;11412;50.802;4.350;2023-01-10T05:22:11;5.90;99.90
22491;DHT22;11412;50.802;4.350;2023-01-10T05:24:37;5.70;99.90
22491;DHT22;11412;50.802;4.350;2023-01-10T05:27:03;5.90;99.90
22491;DHT22;11412;50.802;4.350;2023-01-10T05:29:28;6.20;99.90
22491;DHT22;11412;50.802;4.350;2023-01-10T05:31:54;6.10;99.90
22491;DHT22;11412;50.802;4.350;2023-01-10T05:34:20;6.30;99.90
22491;DHT22;11412;50.802;4.350;2023-01-10T05:36:45;6.50;99.90
22491;DHT22;11412;50.802;4.350;2023-01-10T05:39:11;6.50;99.90
22491;DHT22;11412;50.802;4.350;2023-01-10T05:41:38;6.60;99.90
22491;DHT22;11412;50.802;4.350;2023-01-10T05:44:05;6.50;99.90
22491;DHT22;11412;50.802;4.350;2023-01-10T05:46:32;6.20;99.90
22491;DHT22;11412;50.802;4.350;2023-01-10T05:48:58;5.80;99.90
22491;DHT22;11412;50.802;4.350;2023-01-10T05:51:23;6.10;99.90
22491;DHT22;11412;50.802;4.350;2023-01-10T05:53:49;6.10;99.90
22491;DHT22;11412;50.802;4.350;2023-01-10T05:56:14;6.30;99.90
22491;DHT22;11412;50.802;4.350;2023-01-10T05:58:40;6.00;99.90
22491;DHT22;11412;50.802;4.350;2023-01-10T06:01:06;5.80;99.90
22491;DHT22;11412;50.802;4.350;2023-01-10T06:03:32;5.80;99.90
22491;DHT22;11412;50.802;4.350;2023-01-10T06:05:57;6.10;99.90
22491;DHT22;11412;50.802;4.350;2023-01-10T06:08:24;6.20;99.90
22491;DHT22;11412;50.802;4.350;2023-01-10T06:10:50;6.20;99.90
22491;DHT22;11412;50.802;4.350;2023-01-10T06:13:15;6.20;99.90
22491;DHT22;11412;50.802;4.350;2023-01-10T06:15:41;6.20;99.90
22491;DHT22;11412;50.802;4.350;2023-01-10T06:18:07;6.30;99.90
22491;DHT22;11412;50.802;4.350;2023-01-10T06:20:33;6.10;99.90
22491;DHT22;11412;50.802;4.350;2023-01-10T06:22:59;6.00;99.90
22491;DHT22;11412;50.802;4.350;2023-01-10T06:25:29;5.50;99.90
22491;DHT22;11412;50.802;4.350;2023-01-10T06:27:55;5.30;99.90
22491;DHT22;11412;50.802;4.350;2023-01-10T06:30:21;5.50;99.90
22491;DHT22;11412;50.802;4.350;2023-01-10T06:32:47;5.80;99.90
22491;DHT22;11412;50.802;4.350;2023-01-10T06:35:12;5.60;99.90
22491;DHT22;11412;50.802;4.350;2023-01-10T06:37:38;5.50;99.90
22491;DHT22;11412;50.802;4.350;2023-01-10T06:40:04;5.40;99.90
22491;DHT22;11412;50.802;4.350;2023-01-10T06:42:30;5.30;99.90
22491;DHT22;11412;50.802;4.350;2023-01-10T06:44:56;5.10;99.90
22491;DHT22;11412;50.802;4.350;2023-01-10T06:47:22;5.10;99.90
22491;DHT22;11412;50.802;4.350;2023-01-10T06:49:47;5.50;99.90
22491;DHT22;11412;50.802;4.350;2023-01-10T06:52:13;5.80;99.90
22491;DHT22;11412;50.802;4.350;2023-01-10T06:54:39;5.90;99.90
22491;DHT22;11412;50.802;4.350;2023-01-10T06:57:07;6.10;99.90
22491;DHT22;11412;50.802;4.350;2023-01-10T06:59:32;6.00;99.90
22491;DHT22;11412;50.802;4.350;2023-01-10T07:01:58;5.80;99.90
22491;DHT22;11412;50.802;4.350;2023-01-10T07:04:24;5.50;99.90
22491;DHT22;11412;50.802;4.350;2023-01-10T07:06:51;5.80;99.90
22491;DHT22;11412;50.802;4.350;2023-01-10T07:09:17;6.00;99.90
22491;DHT22;11412;50.802;4.350;2023-01-10T07:11:42;6.00;99.90
22491;DHT22;11412;50.802;4.350;2023-01-10T07:14:09;5.90;99.90
22491;DHT22;11412;50.802;4.350;2023-01-10T07:16:35;6.00;99.90
22491;DHT22;11412;50.802;4.350;2023-01-10T07:19:01;5.80;99.90
22491;DHT22;11412;50.802;4.350;2023-01-10T07:21:26;5.60;99.90
22491;DHT22;11412;50.802;4.350;2023-01-10T07:23:52;5.60;99.90
22491;DHT22;11412;50.802;4.350;2023-01-10T07:26:19;5.70;99.90
22491;DHT22;11412;50.802;4.350;2023-01-10T07:28:47;5.80;99.90
22491;DHT22;11412;50.802;4.350;2023-01-10T07:31:15;5.90;99.90
22491;DHT22;11412;50.802;4.350;2023-01-10T07:33:41;5.90;99.90
22491;DHT22;11412;50.802;4.350;2023-01-10T07:36:07;5.70;99.90
22491;DHT22;11412;50.802;4.350;2023-01-10T07:38:33;5.70;99.90
22491;DHT22;11412;50.802;4.350;2023-01-10T07:41:01;5.70;99.90
22491;DHT22;11412;50.802;4.350;2023-01-10T07:43:27;5.60;99.90
22491;DHT22;11412;50.802;4.350;2023-01-10T07:45:53;5.60;99.90
22491;DHT22;11412;50.802;4.350;2023-01-10T07:48:19;5.60;99.90
22491;DHT22;11412;50.802;4.350;2023-01-10T07:50:44;5.50;99.90
22491;DHT22;11412;50.802;4.350;2023-01-10T07:53:10;5.70;99.90
22491;DHT22;11412;50.802;4.350;2023-01-10T07:55:37;6.00;99.90
22491;DHT22;11412;50.802;4.350;2023-01-10T07:58:05;5.90;99.90
22491;DHT22;11412;50.802;4.350;2023-01-10T08:00:33;5.80;99.90
22491;DHT22;11412;50.802;4.350;2023-01-10T08:02:59;5.70;99.90
22491;DHT22;11412;50.802;4.350;2023-01-10T08:05:24;5.80;99.90
22491;DHT22;11412;50.802;4.350;2023-01-10T08:07:50;5.90;99.90
22491;DHT22;11412;50.802;4.350;2023-01-10T08:10:17;6.10;99.90
22491;DHT22;11412;50.802;4.350;2023-01-10T08:12:42;6.20;99.90
22491;DHT22;11412;50.802;4.350;2023-01-10T08:15:08;6.30;99.90
22491;DHT22;11412;50.802;4.350;2023-01-10T08:17:35;6.30;99.90
22491;DHT22;11412;50.802;4.350;2023-01-10T08:20:01;6.20;99.90
22491;DHT22;11412;50.802;4.350;2023-01-10T08:22:27;6.00;99.90
22491;DHT22;11412;50.802;4.350;2023-01-10T08:24:53;6.30;99.90
22491;DHT22;11412;50.802;4.350;2023-01-10T08:27:18;6.50;99.90
22491;DHT22;11412;50.802;4.350;2023-01-10T08:29:44;6.60;99.90
22491;DHT22;11412;50.802;4.350;2023-01-10T08:32:10;6.60;99.90
22491;DHT22;11412;50.802;4.350;2023-01-10T08:34:36;6.50;99.90
22491;DHT22;11412;50.802;4.350;2023-01-10T08:37:01;6.70;99.90
22491;DHT22;11412;50.802;4.350;2023-01-10T08:39:28;6.60;99.90
22491;DHT22;11412;50.802;4.350;2023-01-10T08:41:55;6.70;99.90
22491;DHT22;11412;50.802;4.350;2023-01-10T08:44:20;6.60;99.90
22491;DHT22;11412;50.802;4.350;2023-01-10T08:46:46;6.70;99.90
22491;DHT22;11412;50.802;4.350;2023-01-10T08:49:13;6.70;99.90
22491;DHT22;11412;50.802;4.350;2023-01-10T08:51:38;6.80;99.90
22491;DHT22;11412;50.802;4.350;2023-01-10T08:54:04;6.80;99.90
22491;DHT22;11412;50.802;4.350;2023-01-10T08:56:30;6.60;99.90
22491;DHT22;11412;50.802;4.350;2023-01-10T08:58:56;6.80;99.90
22491;DHT22;11412;50.802;4.350;2023-01-10T09:01:21;6.90;99.90
22491;DHT22;11412;50.802;4.350;2023-01-10T09:03:47;6.90;99.90
22491;DHT22;11412;50.802;4.350;2023-01-10T09:06:13;6.50;99.90
22491;DHT22;11412;50.802;4.350;2023-01-10T09:08:38;7.20;99.90
22491;DHT22;11412;50.802;4.350;2023-01-10T09:11:05;6.90;99.90
22491;DHT22;11412;50.802;4.350;2023-01-10T09:13:31;6.60;99.90
22491;DHT22;11412;50.802;4.350;2023-01-10T09:15:57;6.60;99.90
22491;DHT22;11412;50.802;4.350;2023-01-10T09:18:23;6.70;99.90
22491;DHT22;11412;50.802;4.350;2023-01-10T09:20:49;6.90;99.90
22491;DHT22;11412;50.802;4.350;2023-01-10T09:23:18;7.00;99.90
22491;DHT22;11412;50.802;4.350;2023-01-10T09:25:46;7.00;99.90
22491;DHT22;11412;50.802;4.350;2023-01-10T09:28:12;7.10;99.90
22491;DHT22;11412;50.802;4.350;2023-01-10T09:30:38;7.00;99.90
22491;DHT22;11412;50.802;4.350;2023-01-10T09:33:03;7.00;99.90
22491;DHT22;11412;50.802;4.350;2023-01-10T09:35:30;6.90;99.90
22491;DHT22;11412;50.802;4.350;2023-01-10T09:37:57;7.00;99.90
22491;DHT22;11412;50.802;4.350;2023-01-10T09:51:45;7.40;99.90
22491;DHT22;11412;50.802;4.350;2023-01-10T09:56:44;7.70;99.90
22491;DHT22;11412;50.802;4.350;2023-01-10T09:59:17;7.60;99.90
22491;DHT22;11412;50.802;4.350;2023-01-10T10:01:46;7.30;99.90
22491;DHT22;11412;50.802;4.350;2023-01-10T10:04:35;7.30;99.90
22491;DHT22;11412;50.802;4.350;2023-01-10T10:07:02;7.70;99.90
22491;DHT22;11412;50.802;4.350;2023-01-10T10:09:30;7.80;99.90
22491;DHT22;11412;50.802;4.350;2023-01-10T10:12:34;7.90;99.90
22491;DHT22;11412;50.802;4.350;2023-01-10T10:15:23;7.80;99.90
22491;DHT22;11412;50.802;4.350;2023-01-10T10:18:08;7.90;99.90
22491;DHT22;11412;50.802;4.350;2023-01-10T10:26:32;7.70;99.90
22491;DHT22;11412;50.802;4.350;2023-01-10T10:32:26;7.70;99.90
22491;DHT22;11412;50.802;4.350;2023-01-10T10:35:37;8.00;99.90
22491;DHT22;11412;50.802;4.350;2023-01-10T10:38:17;8.20;99.90
22491;DHT22;11412;50.802;4.350;2023-01-10T10:40:46;8.00;99.90
22491;DHT22;11412;50.802;4.350;2023-01-10T10:43:20;7.90;99.90
22491;DHT22;11412;50.802;4.350;2023-01-10T10:46:08;7.90;99.90
22491;DHT22;11412;50.802;4.350;2023-01-10T10:51:38;8.20;99.90
22491;DHT22;11412;50.802;4.350;2023-01-10T10:54:10;8.30;99.90
22491;DHT22;11412;50.802;4.350;2023-01-10T10:56:36;8.20;99.90
22491;DHT22;11412;50.802;4.350;2023-01-10T10:59:03;8.10;99.90
22491;DHT22;11412;50.802;4.350;2023-01-10T11:01:29;8.20;99.90
22491;DHT22;11412;50.802;4.350;2023-01-10T11:03:59;8.40;99.90
22491;DHT22;11412;50.802;4.350;2023-01-10T11:06:28;8.50;99.90
22491;DHT22;11412;50.802;4.350;2023-01-10T11:08:56;8.40;99.90
22491;DHT22;11412;50.802;4.350;2023-01-10T11:11:37;8.40;99.90
22491;DHT22;11412;50.802;4.350;2023-01-10T11:14:07;8.10;99.90
22491;DHT22;11412;50.802;4.350;2023-01-10T11:16:36;8.30;99.90
22491;DHT22;11412;50.802;4.350;2023-01-10T11:19:23;8.40;99.90
22491;DHT22;11412;50.802;4.350;2023-01-10T11:21:54;8.40;99.90
22491;DHT22;11412;50.802;4.350;2023-01-10T11:24:32;8.40;99.90
22491;DHT22;11412;50.802;4.350;2023-01-10T11:27:03;8.60;99.90
22491;DHT22;11412;50.802;4.350;2023-01-10T11:29:36;8.00;99.90
22491;DHT22;11412;50.802;4.350;2023-01-10T11:32:18;8.20;99.90
22491;DHT22;11412;50.802;4.350;2023-01-10T11:35:00;8.40;99.90
22491;DHT22;11412;50.802;4.350;2023-01-10T11:37:32;8.50;99.90
22491;DHT22;11412;50.802;4.350;2023-01-10T11:42:41;8.30;99.90
22491;DHT22;11412;50.802;4.350;2023-01-10T11:47:54;8.50;99.90
22491;DHT22;11412;50.802;4.350;2023-01-10T11:50:27;8.70;99.90
22491;DHT22;11412;50.802;4.350;2023-01-10T11:52:54;8.70;99.90
22491;DHT22;11412;50.802;4.350;2023-01-10T11:55:25;8.50;99.90
22491;DHT22;11412;50.802;4.350;2023-01-10T12:03:02;8.80;99.90
22491;DHT22;11412;50.802;4.350;2023-01-10T12:05:38;9.10;99.90
22491;DHT22;11412;50.802;4.350;2023-01-10T12:08:05;8.90;99.90
22491;DHT22;11412;50.802;4.350;2023-01-10T12:10:33;9.10;99.90
22491;DHT22;11412;50.802;4.350;2023-01-10T12:13:12;9.10;99.90
22491;DHT22;11412;50.802;4.350;2023-01-10T12:15:38;9.10;99.90
22491;DHT22;11412;50.802;4.350;2023-01-10T12:18:04;9.10;99.90
22491;DHT22;11412;50.802;4.350;2023-01-10T12:20:34;9.30;99.90
22491;DHT22;11412;50.802;4.350;2023-01-10T12:23:07;9.20;99.90
22491;DHT22;11412;50.802;4.350;2023-01-10T12:25:42;9.20;99.90
22491;DHT22;11412;50.802;4.350;2023-01-10T12:28:25;9.20;99.90
22491;DHT22;11412;50.802;4.350;2023-01-10T12:30:56;9.00;99.90
22491;DHT22;11412;50.802;4.350;2023-01-10T12:33:25;9.00;99.90
22491;DHT22;11412;50.802;4.350;2023-01-10T12:36:03;9.00;99.90
22491;DHT22;11412;50.802;4.350;2023-01-10T12:38:43;9.00;99.90
22491;DHT22;11412;50.802;4.350;2023-01-10T12:44:40;9.00;99.90
22491;DHT22;11412;50.802;4.350;2023-01-10T12:50:19;8.60;99.90
22491;DHT22;11412;50.802;4.350;2023-01-10T12:53:12;8.50;99.90
22491;DHT22;11412;50.802;4.350;2023-01-10T12:55:44;8.60;99.90
22491;DHT22;11412;50.802;4.350;2023-01-10T12:58:30;8.70;99.90
22491;DHT22;11412;50.802;4.350;2023-01-10T13:00:58;8.60;99.90
22491;DHT22;11412;50.802;4.350;2023-01-10T13:03:30;8.50;99.90
22491;DHT22;11412;50.802;4.350;2023-01-10T13:05:57;8.40;99.90
22491;DHT22;11412;50.802;4.350;2023-01-10T13:08:27;8.30;99.90
22491;DHT22;11412;50.802;4.350;2023-01-10T13:10:56;8.30;99.90
22491;DHT22;11412;50.802;4.350;2023-01-10T13:13:42;8.30;99.90
22491;DHT22;11412;50.802;4.350;2023-01-10T13:21:40;8.20;99.90
22491;DHT22;11412;50.802;4.350;2023-01-10T13:24:24;8.30;99.90
22491;DHT22;11412;50.802;4.350;2023-01-10T13:26:54;8.50;99.90
22491;DHT22;11412;50.802;4.350;2023-01-10T13:29:28;8.30;99.90
22491;DHT22;11412;50.802;4.350;2023-01-10T13:31:59;8.20;99.90
22491;DHT22;11412;50.802;4.350;2023-01-10T13:34:31;8.30;99.90
22491;DHT22;11412;50.802;4.350;2023-01-10T13:37:11;8.50;99.90
22491;DHT22;11412;50.802;4.350;2023-01-10T13:39:42;7.90;99.90
22491;DHT22;11412;50.802;4.350;2023-01-10T13:45:22;7.90;99.90
22491;DHT22;11412;50.802;4.350;2023-01-10T13:47:55;7.80;99.90
22491;DHT22;11412;50.802;4.350;2023-01-10T13:55:55;7.90;99.90
22491;DHT22;11412;50.802;4.350;2023-01-10T14:01:35;7.60;99.90
22491;DHT22;11412;50.802;4.350;2023-01-10T14:04:30;7.80;99.90
22491;DHT22;11412;50.802;4.350;2023-01-10T14:07:17;7.90;99.90
22491;DHT22;11412;50.802;4.350;2023-01-10T14:09:45;7.70;99.90
22491;DHT22;11412;50.802;4.350;2023-01-10T14:14:56;7.60;99.90
22491;DHT22;11412;50.802;4.350;2023-01-10T14:20:12;7.80;99.90
22491;DHT22;11412;50.802;4.350;2023-01-10T14:22:44;7.50;99.90
22491;DHT22;11412;50.802;4.350;2023-01-10T14:25:20;7.80;99.90
22491;DHT22;11412;50.802;4.350;2023-01-10T14:27:48;7.70;99.90
22491;DHT22;11412;50.802;4.350;2023-01-10T14:30:25;7.90;99.90
22491;DHT22;11412;50.802;4.350;2023-01-10T14:32:53;7.60;99.90
22491;DHT22;11412;50.802;4.350;2023-01-10T14:35:26;7.90;99.90
22491;DHT22;11412;50.802;4.350;2023-01-10T14:37:54;7.60;99.90
22491;DHT22;11412;50.802;4.350;2023-01-10T14:40:27;7.50;99.90
22491;DHT22;11412;50.802;4.350;2023-01-10T14:42:54;7.80;99.90
22491;DHT22;11412;50.802;4.350;2023-01-10T14:45:33;7.70;99.90
22491;DHT22;11412;50.802;4.350;2023-01-10T14:48:23;7.80;99.90
22491;DHT22;11412;50.802;4.350;2023-01-10T14:51:36;7.90;99.90
22491;DHT22;11412;50.802;4.350;2023-01-10T14:53:37;7.80;99.90
22491;DHT22;11412;50.802;4.350;2023-01-10T14:56:03;7.90;99.90
22491;DHT22;11412;50.802;4.350;2023-01-10T14:58:41;8.00;99.90
22491;DHT22;11412;50.802;4.350;2023-01-10T15:01:08;8.00;99.90
22491;DHT22;11412;50.802;4.350;2023-01-10T15:03:34;7.80;99.90
22491;DHT22;11412;50.802;4.350;2023-01-10T15:06:02;7.80;99.90
22491;DHT22;11412;50.802;4.350;2023-01-10T15:08:29;8.00;99.90
22491;DHT22;11412;50.802;4.350;2023-01-10T15:11:01;7.90;99.90
22491;DHT22;11412;50.802;4.350;2023-01-10T15:13:30;7.80;99.90
22491;DHT22;11412;50.802;4.350;2023-01-10T15:15:58;7.80;99.90
22491;DHT22;11412;50.802;4.350;2023-01-10T15:18:31;7.90;99.90
22491;DHT22;11412;50.802;4.350;2023-01-10T15:20:58;8.00;99.90
22491;DHT22;11412;50.802;4.350;2023-01-10T15:23:36;8.00;99.90
22491;DHT22;11412;50.802;4.350;2023-01-10T15:26:06;7.80;99.90
22491;DHT22;11412;50.802;4.350;2023-01-10T15:28:34;7.90;99.90
22491;DHT22;11412;50.802;4.350;2023-01-10T15:31:01;7.70;99.90
22491;DHT22;11412;50.802;4.350;2023-01-10T15:33:30;7.90;99.90
22491;DHT22;11412;50.802;4.350;2023-01-10T15:36:17;7.90;99.90
22491;DHT22;11412;50.802;4.350;2023-01-10T15:38:45;8.00;99.90
22491;DHT22;11412;50.802;4.350;2023-01-10T15:41:22;7.90;99.90
22491;DHT22;11412;50.802;4.350;2023-01-10T15:43:48;7.90;99.90
22491;DHT22;11412;50.802;4.350;2023-01-10T15:46:18;7.90;99.90
22491;DHT22;11412;50.802;4.350;2023-01-10T15:48:57;7.90;99.90
22491;DHT22;11412;50.802;4.350;2023-01-10T15:51:34;7.90;99.90
22491;DHT22;11412;50.802;4.350;2023-01-10T15:54:04;7.90;99.90
22491;DHT22;11412;50.802;4.350;2023-01-10T15:56:37;7.90;99.90
22491;DHT22;11412;50.802;4.350;2023-01-10T15:59:17;7.80;99.90
22491;DHT22;11412;50.802;4.350;2023-01-10T16:01:55;7.90;99.90
22491;DHT22;11412;50.802;4.350;2023-01-10T16:04:23;7.90;99.90
22491;DHT22;11412;50.802;4.350;2023-01-10T16:06:53;8.00;99.90
22491;DHT22;11412;50.802;4.350;2023-01-10T16:09:28;8.10;99.90
22491;DHT22;11412;50.802;4.350;2023-01-10T16:11:55;8.00;99.90
22491;DHT22;11412;50.802;4.350;2023-01-10T16:14:39;8.00;99.90
22491;DHT22;11412;50.802;4.350;2023-01-10T16:17:06;7.80;99.90
22491;DHT22;11412;50.802;4.350;2023-01-10T16:19:32;7.80;99.90
22491;DHT22;11412;50.802;4.350;2023-01-10T16:21:58;7.80;99.90
22491;DHT22;11412;50.802;4.350;2023-01-10T16:24:29;7.70;99.90
22491;DHT22;11412;50.802;4.350;2023-01-10T16:26:57;7.80;99.90
22491;DHT22;11412;50.802;4.350;2023-01-10T16:29:25;7.90;99.90
22491;DHT22;11412;50.802;4.350;2023-01-10T16:31:51;7.90;99.90
22491;DHT22;11412;50.802;4.350;2023-01-10T16:34:17;8.00;99.90
22491;DHT22;11412;50.802;4.350;2023-01-10T16:36:43;8.10;99.90
22491;DHT22;11412;50.802;4.350;2023-01-10T16:39:16;8.00;99.90
22491;DHT22;11412;50.802;4.350;2023-01-10T16:41:43;8.00;99.90
22491;DHT22;11412;50.802;4.350;2023-01-10T16:44:28;8.10;99.90
22491;DHT22;11412;50.802;4.350;2023-01-10T16:46:54;8.20;99.90
22491;DHT22;11412;50.802;4.350;2023-01-10T16:49:20;8.20;99.90
22491;DHT22;11412;50.802;4.350;2023-01-10T16:51:46;8.30;99.90
22491;DHT22;11412;50.802;4.350;2023-01-10T16:54:16;8.30;99.90
22491;DHT22;11412;50.802;4.350;2023-01-10T16:56:44;8.30;99.90
22491;DHT22;11412;50.802;4.350;2023-01-10T16:59:11;8.30;99.90
22491;DHT22;11412;50.802;4.350;2023-01-10T17:01:44;8.30;99.90
22491;DHT22;11412;50.802;4.350;2023-01-10T17:04:16;8.40;99.90
22491;DHT22;11412;50.802;4.350;2023-01-10T17:06:43;8.40;99.90
22491;DHT22;11412;50.802;4.350;2023-01-10T17:09:28;8.60;99.90
22491;DHT22;11412;50.802;4.350;2023-01-10T17:11:56;8.50;99.90
22491;DHT22;11412;50.802;4.350;2023-01-10T17:14:32;8.70;99.90
22491;DHT22;11412;50.802;4.350;2023-01-10T17:16:59;8.50;99.90
22491;DHT22;11412;50.802;4.350;2023-01-10T17:19:24;8.70;99.90
22491;DHT22;11412;50.802;4.350;2023-01-10T17:21:50;8.60;99.90
22491;DHT22;11412;50.802;4.350;2023-01-10T17:24:16;8.60;99.90
22491;DHT22;11412;50.802;4.350;2023-01-10T17:26:42;9.10;99.90
22491;DHT22;11412;50.802;4.350;2023-01-10T17:29:08;8.70;99.90
22491;DHT22;11412;50.802;4.350;2023-01-10T17:31:34;8.70;99.90
22491;DHT22;11412;50.802;4.350;2023-01-10T17:33:59;9.10;99.90
22491;DHT22;11412;50.802;4.350;2023-01-10T17:36:25;8.80;99.90
22491;DHT22;11412;50.802;4.350;2023-01-10T17:38:57;8.90;99.90
22491;DHT22;11412;50.802;4.350;2023-01-10T17:41:23;8.90;99.90
22491;DHT22;11412;50.802;4.350;2023-01-10T17:43:49;8.90;99.90